createdAt,value
2018-07-28T00:01:25.155Z,69.37
2018-07-28T00:03:53.821Z,68.28
2018-07-28T00:06:22.438Z,68.73
2018-07-28T00:09:00.381Z,68.33
2018-07-28T00:11:29.041Z,68.54
2018-07-28T00:13:57.701Z,68.23
2018-07-28T00:16:27.250Z,68.58
2018-07-28T00:19:05.713Z,68.07
2018-07-28T00:21:34.332Z,68.61
2018-07-28T00:24:02.822Z,67.81
2018-07-28T00:26:31.396Z,68.59
2018-07-28T00:28:59.951Z,67.67
2018-07-28T00:31:29.350Z,67.21
2018-07-28T00:33:58.164Z,68.65
2018-07-28T00:36:26.856Z,69.00
2018-07-28T00:39:00.562Z,68.07
2018-07-28T00:41:30.482Z,67.82
2018-07-28T00:43:59.239Z,68.11
2018-07-28T00:46:27.716Z,68.29
2018-07-28T00:49:01.204Z,68.44
2018-07-28T00:51:29.758Z,67.46
2018-07-28T00:53:58.180Z,67.59
2018-07-28T00:56:26.591Z,68.05
2018-07-28T01:01:47.715Z,68.82
2018-07-28T01:04:16.192Z,67.77
2018-07-28T01:06:45.400Z,68.23
2018-07-28T01:09:13.952Z,67.67
2018-07-28T01:11:42.917Z,67.74
2018-07-28T01:14:12.009Z,67.85
2018-07-28T01:16:40.789Z,67.64
2018-07-28T01:19:18.826Z,67.19
2018-07-28T01:21:49.046Z,68.05
2018-07-28T01:24:18.456Z,67.95
2018-07-28T01:26:47.271Z,68.49
2018-07-28T01:29:17.357Z,68.21
2018-07-28T01:31:46.997Z,68.61
2018-07-28T01:34:15.522Z,68.21
2018-07-28T01:36:43.930Z,68.69
2018-07-28T01:39:14.590Z,68.30
2018-07-28T01:41:44.383Z,67.91
2018-07-28T01:44:12.891Z,68.60
2018-07-28T01:46:41.661Z,68.93
2018-07-28T01:49:10.393Z,68.31
2018-07-28T01:51:38.959Z,68.26
2018-07-28T01:54:07.542Z,69.28
2018-07-28T01:56:36.013Z,68.67
2018-07-28T01:59:09.499Z,69.05
2018-07-28T02:01:38.115Z,69.10
2018-07-28T02:04:06.563Z,68.93
2018-07-28T02:06:36.661Z,68.31
2018-07-28T02:09:08.473Z,69.46
2018-07-28T02:11:37.903Z,69.44
2018-07-28T02:14:06.839Z,68.67
2018-07-28T02:16:36.848Z,69.30
2018-07-28T02:19:11.613Z,68.79
2018-07-28T02:21:40.081Z,68.84
2018-07-28T02:24:08.639Z,68.95
2018-07-28T02:26:39.301Z,68.31
2018-07-28T02:29:09.265Z,68.89
2018-07-28T02:31:37.753Z,68.71
2018-07-28T02:34:06.296Z,69.05
2018-07-28T02:36:34.753Z,69.41
2018-07-28T02:39:03.363Z,69.95
2018-07-28T02:41:32.167Z,69.65
2018-07-28T02:44:01.099Z,69.91
2018-07-28T02:46:30.057Z,70.08
2018-07-28T02:48:58.701Z,69.80
2018-07-28T02:51:28.173Z,69.89
2018-07-28T02:53:56.871Z,70.13
2018-07-28T02:56:26.059Z,70.40
2018-07-28T02:58:55.097Z,70.48
2018-07-28T03:01:24.745Z,70.34
2018-07-28T03:03:53.636Z,70.63
2018-07-28T03:06:22.628Z,70.58
2018-07-28T03:08:51.842Z,70.63
2018-07-28T03:11:22.332Z,70.05
2018-07-28T03:13:51.407Z,70.06
2018-07-28T03:16:20.535Z,70.02
2018-07-28T03:18:49.628Z,70.22
2018-07-28T03:21:18.775Z,70.87
2018-07-28T03:23:47.873Z,71.07
2018-07-28T03:26:16.699Z,70.43
2018-07-28T03:28:45.715Z,70.15
2018-07-28T03:31:14.629Z,70.73
2018-07-28T03:33:43.617Z,69.98
2018-07-28T03:36:12.869Z,70.41
2018-07-28T03:38:42.335Z,70.23
2018-07-28T03:41:11.699Z,70.42
2018-07-28T03:43:40.772Z,70.88
2018-07-28T03:46:09.905Z,70.02
2018-07-28T03:48:39.113Z,69.59
2018-07-28T03:51:08.341Z,69.98
2018-07-28T03:53:37.643Z,70.20
2018-07-28T03:56:07.141Z,69.66
2018-07-28T03:58:36.063Z,69.92
2018-07-28T04:01:05.124Z,69.16
2018-07-28T04:03:34.286Z,69.88
2018-07-28T04:06:03.363Z,69.75
2018-07-28T04:08:32.453Z,70.32
2018-07-28T04:11:01.340Z,69.65
2018-07-28T04:13:30.614Z,70.26
2018-07-28T04:16:00.075Z,69.96
2018-07-28T04:18:29.196Z,69.93
2018-07-28T04:20:58.125Z,70.25
2018-07-28T04:23:27.018Z,69.91
2018-07-28T04:25:55.952Z,69.92
2018-07-28T04:28:26.157Z,69.32
2018-07-28T04:30:54.975Z,69.97
2018-07-28T04:33:24.602Z,69.32
2018-07-28T04:35:53.520Z,69.60
2018-07-28T04:38:22.385Z,70.02
2018-07-28T04:40:52.395Z,69.52
2018-07-28T04:43:20.944Z,69.38
2018-07-28T04:45:50.246Z,69.86
2018-07-28T04:48:18.663Z,69.65
2018-07-28T04:50:47.108Z,69.95
2018-07-28T04:53:15.596Z,70.08
2018-07-28T04:55:44.079Z,70.63
2018-07-28T04:58:12.624Z,70.40
2018-07-28T05:00:41.440Z,70.41
2018-07-28T05:03:09.982Z,69.87
2018-07-28T05:05:38.482Z,70.24
2018-07-28T05:08:06.881Z,69.56
2018-07-28T05:10:35.466Z,69.55
2018-07-28T05:13:04.115Z,70.34
2018-07-28T05:15:32.666Z,70.02
2018-07-28T05:18:01.382Z,70.58
2018-07-28T05:20:29.806Z,70.67
2018-07-28T05:22:58.287Z,70.48
2018-07-28T05:25:26.791Z,70.36
2018-07-28T05:27:55.350Z,70.20
2018-07-28T05:30:24.224Z,70.75
2018-07-28T05:32:52.620Z,70.11
2018-07-28T05:35:21.260Z,70.29
2018-07-28T05:37:50.112Z,70.26
2018-07-28T05:40:18.601Z,70.81
2018-07-28T05:42:47.107Z,70.97
2018-07-28T05:45:15.854Z,69.98
2018-07-28T05:47:44.375Z,70.87
2018-07-28T05:50:13.035Z,70.24
2018-07-28T05:52:41.495Z,69.96
2018-07-28T05:55:10.080Z,69.66
2018-07-28T05:57:38.649Z,70.63
2018-07-28T06:00:07.815Z,70.87
2018-07-28T06:02:36.409Z,70.02
2018-07-28T06:05:05.693Z,69.41
2018-07-28T06:07:34.275Z,69.16
2018-07-28T06:10:02.921Z,68.83
2018-07-28T06:12:31.450Z,68.30
2018-07-28T06:14:59.930Z,68.55
2018-07-28T06:17:28.442Z,67.87
2018-07-28T06:19:56.975Z,68.50
2018-07-28T06:22:25.792Z,68.15
2018-07-28T06:24:54.446Z,67.79
2018-07-28T06:27:23.246Z,67.59
2018-07-28T06:29:51.732Z,67.79
2018-07-28T06:32:21.056Z,66.88
2018-07-28T06:34:49.630Z,66.74
2018-07-28T06:37:18.105Z,66.72
2018-07-28T06:39:51.807Z,66.47
2018-07-28T06:42:20.634Z,66.73
2018-07-28T06:44:49.198Z,66.33
2018-07-28T06:47:17.657Z,65.78
2018-07-28T06:49:46.234Z,66.42
2018-07-28T06:52:14.784Z,65.99
2018-07-28T06:54:43.402Z,66.16
2018-07-28T06:57:11.958Z,65.82
2018-07-28T06:59:45.560Z,65.14
2018-07-28T07:02:14.476Z,65.39
2018-07-28T07:04:42.981Z,65.41
2018-07-28T07:07:11.460Z,65.23
2018-07-28T07:09:40.058Z,64.99
2018-07-28T07:12:08.818Z,63.64
2018-07-28T07:14:37.432Z,63.32
2018-07-28T07:17:06.170Z,64.15
2018-07-28T07:19:35.133Z,63.69
2018-07-28T07:22:03.788Z,64.18
2018-07-28T07:24:32.214Z,64.25
2018-07-28T07:27:00.760Z,64.05
2018-07-28T07:29:29.246Z,63.31
2018-07-28T07:31:58.336Z,63.61
2018-07-28T07:34:26.868Z,63.05
2018-07-28T07:36:55.398Z,62.20
2018-07-28T07:39:23.881Z,63.31
2018-07-28T07:41:52.460Z,63.43
2018-07-28T07:44:21.280Z,63.72
2018-07-28T07:46:50.146Z,63.00
2018-07-28T07:49:18.624Z,63.42
2018-07-28T07:51:47.170Z,63.50
2018-07-28T07:54:16.306Z,64.10
2018-07-28T07:56:44.762Z,63.64
2018-07-28T07:59:13.388Z,63.61
2018-07-28T08:01:41.786Z,62.41
2018-07-28T08:04:10.226Z,62.36
2018-07-28T08:06:38.784Z,63.17
2018-07-28T08:09:08.893Z,62.34
2018-07-28T08:11:37.778Z,63.13
2018-07-28T08:14:07.830Z,62.85
2018-07-28T08:16:36.416Z,62.81
2018-07-28T08:19:05.405Z,62.91
2018-07-28T08:21:34.570Z,62.89
2018-07-28T08:24:03.590Z,62.98
2018-07-28T08:26:32.092Z,61.94
2018-07-28T08:29:00.846Z,62.72
2018-07-28T08:31:29.638Z,60.69
2018-07-28T08:33:58.134Z,60.90
2018-07-28T08:36:26.928Z,60.77
2018-07-28T08:38:56.574Z,59.82
2018-07-28T08:41:26.152Z,60.37
2018-07-28T08:43:54.722Z,59.90
2018-07-28T08:46:23.137Z,60.14
2018-07-28T08:51:44.754Z,59.10
2018-07-28T08:54:14.445Z,58.52
2018-07-28T08:56:43.318Z,59.05
2018-07-28T08:59:12.474Z,58.72
2018-07-28T09:01:41.473Z,57.93
2018-07-28T09:04:11.233Z,59.15
2018-07-28T09:06:40.026Z,59.12
2018-07-28T09:09:10.662Z,58.47
2018-07-28T09:11:39.654Z,58.88
2018-07-28T09:14:09.310Z,58.57
2018-07-28T09:16:38.050Z,57.31
2018-07-28T09:19:07.148Z,56.43
2018-07-28T09:21:36.538Z,55.92
2018-07-28T09:24:05.683Z,56.00
2018-07-28T09:26:34.104Z,55.52
2018-07-28T09:29:02.606Z,55.45
2018-07-28T09:31:31.182Z,56.05
2018-07-28T09:33:59.860Z,56.32
2018-07-28T09:36:28.409Z,56.25
2018-07-28T09:38:56.818Z,56.55
2018-07-28T09:41:25.722Z,55.02
2018-07-28T09:43:54.476Z,55.58
2018-07-28T09:46:23.026Z,54.54
2018-07-28T09:48:51.636Z,53.51
2018-07-28T09:51:20.164Z,52.20
2018-07-28T09:53:48.963Z,51.07
2018-07-28T09:56:17.366Z,51.19
2018-07-28T09:58:45.956Z,51.55
2018-07-28T10:01:17.550Z,49.91
2018-07-28T10:03:46.552Z,50.09
2018-07-28T10:06:15.339Z,50.19
2018-07-28T10:08:44.863Z,49.54
2018-07-28T10:11:13.556Z,48.69
2018-07-28T10:13:42.006Z,48.02
2018-07-28T10:16:10.587Z,48.59
2018-07-28T10:18:39.130Z,48.74
2018-07-28T10:21:07.880Z,49.20
2018-07-28T10:23:36.406Z,48.54
2018-07-28T10:26:04.878Z,47.76
2018-07-28T10:28:33.354Z,46.67
2018-07-28T10:31:02.038Z,46.68
2018-07-28T10:33:30.594Z,46.64
2018-07-28T10:35:59.798Z,46.78
2018-07-28T10:38:28.304Z,46.56
2018-07-28T10:40:56.846Z,45.68
2018-07-28T10:43:26.140Z,46.55
2018-07-28T10:45:54.724Z,46.30
2018-07-28T10:48:23.132Z,44.93
2018-07-28T10:50:51.821Z,44.03
2018-07-28T10:53:20.378Z,43.94
2018-07-28T10:55:48.960Z,43.69
2018-07-28T10:58:17.436Z,41.59
2018-07-28T11:00:46.538Z,41.10
2018-07-28T11:03:14.930Z,41.04
2018-07-28T11:05:43.556Z,40.01
2018-07-28T11:08:12.328Z,39.96
2018-07-28T11:10:40.848Z,40.32
2018-07-28T11:13:09.452Z,40.04
2018-07-28T11:15:38.545Z,39.11
2018-07-28T11:18:07.116Z,40.12
2018-07-28T11:20:35.694Z,38.74
2018-07-28T11:23:04.534Z,37.28
2018-07-28T11:25:33.434Z,37.47
2018-07-28T11:28:02.028Z,35.94
2018-07-28T11:30:30.440Z,36.21
2018-07-28T11:33:10.055Z,36.02
2018-07-28T11:35:49.464Z,36.81
2018-07-28T11:38:29.094Z,36.39
2018-07-28T11:41:08.982Z,34.81
2018-07-28T11:43:48.624Z,36.39
2018-07-28T11:46:17.282Z,35.73
2018-07-28T11:48:45.710Z,35.55
2018-07-28T11:51:14.794Z,34.91
2018-07-28T11:53:43.650Z,35.80
2018-07-28T11:56:12.558Z,35.54
2018-07-28T11:58:41.425Z,35.29
2018-07-28T12:01:10.332Z,35.82
2018-07-28T12:03:40.092Z,35.34
2018-07-28T12:06:08.789Z,30.68
2018-07-28T12:08:37.750Z,30.76
2018-07-28T12:11:06.871Z,30.38
2018-07-28T12:13:35.788Z,30.21
2018-07-28T12:16:04.848Z,30.55
2018-07-28T12:18:34.683Z,30.65
2018-07-28T12:21:03.079Z,31.82
2018-07-28T12:23:31.495Z,30.52
2018-07-28T12:26:00.143Z,30.15
2018-07-28T12:28:28.557Z,30.04
2018-07-28T12:30:57.118Z,28.77
2018-07-28T12:33:25.506Z,28.28
2018-07-28T12:35:53.922Z,29.41
2018-07-28T12:38:22.361Z,28.74
2018-07-28T12:40:50.989Z,29.74
2018-07-28T12:43:19.424Z,31.68
2018-07-28T12:45:48.161Z,30.10
2018-07-28T12:48:16.590Z,28.34
2018-07-28T12:50:45.026Z,28.96
2018-07-28T12:53:13.475Z,28.88
2018-07-28T12:55:41.960Z,29.13
2018-07-28T12:58:10.543Z,28.08
2018-07-28T13:00:38.926Z,28.74
2018-07-28T13:03:07.408Z,28.53
2018-07-28T13:05:35.809Z,27.00
2018-07-28T13:08:04.335Z,28.65
2018-07-28T13:10:32.800Z,27.70
2018-07-28T13:13:01.224Z,28.59
2018-07-28T13:15:29.645Z,26.62
2018-07-28T13:17:58.227Z,26.90
2018-07-28T13:20:26.596Z,26.64
2018-07-28T13:22:55.073Z,27.20
2018-07-28T13:25:23.531Z,29.72
2018-07-28T13:27:51.933Z,28.66
2018-07-28T13:30:20.501Z,29.17
2018-07-28T13:32:48.923Z,29.69
2018-07-28T13:35:17.563Z,29.94
2018-07-28T13:37:46.025Z,31.28
2018-07-28T13:40:14.483Z,31.70
2018-07-28T13:42:42.905Z,31.39
2018-07-28T13:45:11.301Z,30.49
2018-07-28T13:47:39.751Z,29.25
2018-07-28T13:50:08.188Z,29.06
2018-07-28T13:52:36.563Z,29.83
2018-07-28T13:55:05.617Z,29.34
2018-07-28T13:57:34.076Z,29.68
2018-07-28T14:00:02.486Z,30.38
2018-07-28T14:02:30.879Z,30.92
2018-07-28T14:05:00.177Z,31.13
2018-07-28T14:07:28.674Z,32.07
2018-07-28T14:09:57.386Z,32.21
2018-07-28T14:12:25.065Z,32.53
2018-07-28T14:14:56.701Z,33.15
2018-07-28T14:17:24.365Z,34.13
2018-07-28T14:19:52.196Z,35.22
2018-07-28T14:22:20.923Z,36.29
2018-07-28T14:24:49.387Z,36.93
2018-07-28T14:27:18.005Z,37.69
2018-07-28T14:29:46.609Z,38.37
2018-07-28T14:32:15.166Z,38.60
2018-07-28T14:34:44.030Z,38.87
2018-07-28T14:37:12.639Z,39.83
2018-07-28T14:39:41.181Z,40.42
2018-07-28T14:42:10.171Z,41.07
2018-07-28T14:44:38.825Z,40.71
2018-07-28T14:47:08.253Z,40.76
2018-07-28T14:49:37.228Z,41.16
2018-07-28T14:52:05.860Z,40.61
2018-07-28T14:54:34.740Z,40.63
2018-07-28T14:57:03.199Z,41.67
2018-07-28T14:59:31.754Z,45.18
2018-07-28T15:02:00.466Z,49.32
2018-07-28T15:04:29.369Z,51.57
2018-07-28T15:06:57.888Z,54.06
2018-07-28T15:09:26.486Z,53.08
2018-07-28T15:11:55.219Z,56.54
2018-07-28T15:14:23.664Z,57.61
2018-07-28T15:16:52.345Z,59.83
2018-07-28T15:19:26.115Z,59.52
2018-07-28T15:21:54.992Z,60.38
2018-07-28T15:24:23.461Z,60.24
2018-07-28T15:26:52.756Z,59.54
2018-07-28T15:29:21.351Z,59.83
2018-07-28T15:31:49.913Z,61.54
2018-07-28T15:34:18.511Z,62.47
2018-07-28T15:36:46.955Z,63.32
2018-07-28T15:39:15.589Z,62.77
2018-07-28T15:41:44.090Z,62.72
2018-07-28T15:44:12.627Z,62.67
2018-07-28T15:46:41.493Z,63.54
2018-07-28T15:49:12.802Z,63.46
2018-07-28T15:51:41.355Z,62.51
2018-07-28T15:54:09.943Z,62.82
2018-07-28T15:56:38.555Z,62.28
2018-07-28T15:59:07.311Z,62.18
2018-07-28T16:01:36.148Z,62.57
2018-07-28T16:04:04.733Z,62.16
2018-07-28T16:06:33.193Z,62.43
2018-07-28T16:09:01.813Z,61.72
2018-07-28T16:11:30.332Z,62.60
2018-07-28T16:13:58.805Z,62.21
2018-07-28T16:16:27.533Z,63.42
2018-07-28T16:18:56.294Z,63.35
2018-07-28T16:21:25.061Z,64.04
2018-07-28T16:23:53.670Z,63.10
2018-07-28T16:26:22.309Z,63.22
2018-07-28T16:28:51.464Z,63.78
2018-07-28T16:31:20.312Z,63.38
2018-07-28T16:33:49.084Z,63.52
2018-07-28T16:36:17.893Z,64.64
2018-07-28T16:38:51.423Z,64.25
2018-07-28T16:41:20.161Z,62.15
2018-07-28T16:43:49.568Z,63.85
2018-07-28T16:46:19.035Z,63.60
2018-07-28T16:48:53.665Z,62.92
2018-07-28T16:51:22.558Z,63.58
2018-07-28T16:53:52.167Z,64.19
2018-07-28T16:56:22.392Z,63.43
2018-07-28T16:58:51.134Z,63.97
2018-07-28T17:01:19.620Z,63.70
2018-07-28T17:03:48.212Z,63.13
2018-07-28T17:06:17.023Z,63.60
2018-07-28T17:08:45.657Z,62.95
2018-07-28T17:11:14.909Z,62.46
2018-07-28T17:13:43.796Z,62.72
2018-07-28T17:16:12.582Z,62.79
2018-07-28T17:18:41.083Z,64.63
2018-07-28T17:21:09.738Z,64.20
2018-07-28T17:23:38.275Z,63.07
2018-07-28T17:26:08.050Z,63.81
2018-07-28T17:28:36.657Z,64.26
2018-07-28T17:31:05.268Z,64.39
2018-07-28T17:33:33.736Z,63.21
2018-07-28T17:36:02.619Z,61.71
2018-07-28T17:38:32.481Z,60.84
2018-07-28T17:41:01.979Z,61.46
2018-07-28T17:43:30.596Z,61.40
2018-07-28T17:45:59.376Z,60.93
2018-07-28T17:48:28.316Z,61.77
2018-07-28T17:50:57.059Z,60.91
2018-07-28T17:53:26.088Z,60.27
2018-07-28T17:55:55.155Z,61.03
2018-07-28T17:58:24.889Z,62.68
2018-07-28T18:00:53.727Z,63.95
2018-07-28T18:03:22.507Z,63.95
2018-07-28T18:05:51.255Z,64.90
2018-07-28T18:08:20.137Z,65.66
2018-07-28T18:10:49.107Z,65.66
2018-07-28T18:13:18.110Z,65.71
2018-07-28T18:15:47.521Z,65.76
2018-07-28T18:18:16.260Z,66.79
2018-07-28T18:20:45.488Z,66.78
2018-07-28T18:23:14.166Z,66.72
2018-07-28T18:25:42.690Z,66.43
2018-07-28T18:28:11.253Z,66.18
2018-07-28T18:30:39.876Z,66.17
2018-07-28T18:33:09.605Z,66.64
2018-07-28T18:35:38.247Z,65.40
2018-07-28T18:38:07.076Z,66.09
2018-07-28T18:40:45.007Z,65.90
2018-07-28T18:43:13.567Z,66.34
2018-07-28T18:45:42.405Z,67.19
2018-07-28T18:48:11.159Z,66.81
2018-07-28T18:50:39.766Z,65.76
2018-07-28T18:53:08.759Z,66.50
2018-07-28T18:55:37.755Z,67.21
2018-07-28T18:58:07.000Z,67.79
2018-07-28T19:00:40.863Z,67.41
2018-07-28T19:03:09.425Z,67.72
2018-07-28T19:05:39.120Z,67.94
2018-07-28T19:08:07.708Z,67.25
2018-07-28T19:10:41.522Z,67.33
2018-07-28T19:13:15.323Z,67.34
2018-07-28T19:15:44.016Z,67.40
2018-07-28T19:18:17.961Z,68.18
2018-07-28T19:20:46.598Z,68.61
2018-07-28T19:23:20.381Z,68.37
2018-07-28T19:25:49.019Z,68.75
2018-07-28T19:28:23.033Z,69.24
2018-07-28T19:30:56.625Z,69.81
2018-07-28T19:33:25.255Z,70.30
2018-07-28T19:35:58.932Z,70.09
2018-07-28T19:38:27.810Z,70.14
2018-07-28T19:40:56.293Z,69.47
2018-07-28T19:43:25.059Z,69.61
2018-07-28T19:45:53.560Z,69.05
2018-07-28T19:48:22.533Z,68.93
2018-07-28T19:51:00.427Z,69.06
2018-07-28T19:53:29.442Z,69.12
2018-07-28T19:55:58.401Z,68.40
2018-07-28T19:58:27.071Z,69.20
2018-07-28T20:00:55.750Z,68.35
2018-07-28T20:03:24.460Z,67.56
2018-07-28T20:05:53.103Z,67.24
2018-07-28T20:08:21.783Z,66.45
2018-07-28T20:10:50.389Z,65.92
2018-07-28T20:13:20.155Z,64.01
2018-07-28T20:15:48.743Z,64.79
2018-07-28T20:18:16.403Z,64.25
2018-07-28T20:20:45.811Z,64.47
2018-07-28T20:23:14.561Z,65.16
2018-07-28T20:25:45.507Z,65.33
2018-07-28T20:28:14.011Z,64.76
2018-07-28T20:30:43.662Z,65.36
2018-07-28T20:33:12.657Z,65.66
2018-07-28T20:35:41.297Z,65.72
2018-07-28T20:38:10.227Z,65.68
2018-07-28T20:40:39.035Z,65.30
2018-07-28T20:43:07.597Z,65.59
2018-07-28T20:45:36.169Z,66.96
2018-07-28T20:48:04.949Z,66.54
2018-07-28T20:50:43.037Z,67.98
2018-07-28T20:53:11.715Z,68.66
2018-07-28T20:55:40.337Z,68.73
2018-07-28T20:58:08.849Z,68.73
2018-07-28T21:00:37.719Z,68.69
2018-07-28T21:03:06.914Z,70.22
2018-07-28T21:05:35.542Z,70.73
2018-07-28T21:08:04.284Z,72.17
2018-07-28T21:10:32.981Z,70.84
2018-07-28T21:13:01.625Z,71.96
2018-07-28T21:15:30.451Z,73.00
2018-07-28T21:17:59.423Z,73.77
2018-07-28T21:20:28.094Z,73.64
2018-07-28T21:22:56.706Z,74.11
2018-07-28T21:25:25.461Z,74.13
2018-07-28T21:27:53.932Z,74.04
2018-07-28T21:30:22.730Z,73.70
2018-07-28T21:32:51.691Z,73.52
2018-07-28T21:35:20.477Z,73.61
2018-07-28T21:37:50.657Z,74.11
2018-07-28T21:40:19.555Z,73.06
2018-07-28T21:42:49.804Z,73.02
2018-07-28T21:45:19.125Z,72.92
2018-07-28T21:47:48.469Z,73.11
2018-07-28T21:50:17.458Z,72.33
2018-07-28T21:52:45.898Z,72.27
2018-07-28T21:55:14.607Z,72.28
2018-07-28T21:57:43.006Z,73.02
2018-07-28T22:00:12.005Z,72.82
2018-07-28T22:02:40.486Z,71.61
2018-07-28T22:05:09.554Z,72.37
2018-07-28T22:07:38.065Z,72.34
2018-07-28T22:10:06.751Z,73.99
2018-07-28T22:12:35.288Z,73.75
2018-07-28T22:15:03.986Z,73.26
2018-07-28T22:17:32.479Z,73.44
2018-07-28T22:20:01.081Z,71.76
2018-07-28T22:22:29.639Z,72.22
2018-07-28T22:24:58.804Z,72.28
2018-07-28T22:27:27.327Z,72.75
2018-07-28T22:30:01.292Z,72.87
2018-07-28T22:32:29.842Z,73.71
2018-07-28T22:34:58.492Z,72.76
2018-07-28T22:37:27.036Z,70.96
2018-07-28T22:39:56.344Z,71.75
2018-07-28T22:42:35.892Z,71.24
2018-07-28T22:45:05.746Z,71.44
2018-07-28T22:47:34.486Z,69.22
2018-07-28T22:50:03.650Z,68.51
2018-07-28T22:52:35.331Z,69.12
2018-07-28T22:55:05.550Z,68.35
2018-07-28T22:57:34.706Z,68.99
2018-07-28T23:00:03.557Z,70.05
2018-07-28T23:02:32.012Z,70.99
2018-07-28T23:05:01.000Z,71.78
2018-07-28T23:07:29.556Z,72.81
2018-07-28T23:09:58.276Z,73.82
2018-07-28T23:12:28.234Z,74.04
2018-07-28T23:14:56.954Z,74.55
2018-07-28T23:17:28.066Z,75.61
2018-07-28T23:19:57.525Z,76.12
2018-07-28T23:22:28.341Z,76.73
2018-07-28T23:24:57.768Z,76.35
2018-07-28T23:27:26.816Z,76.79
2018-07-28T23:29:57.184Z,76.35
2018-07-28T23:32:26.996Z,77.29
2018-07-28T23:34:57.456Z,77.07
2018-07-28T23:37:36.487Z,77.18
2018-07-28T23:40:23.964Z,76.28
2018-07-28T23:42:53.089Z,73.93
2018-07-28T23:45:22.188Z,70.88
2018-07-28T23:47:52.692Z,71.98
2018-07-28T23:50:21.661Z,71.76
2018-07-28T23:52:51.394Z,71.33
2018-07-28T23:55:21.017Z,70.49
2018-07-28T23:57:51.641Z,70.34
